El Hierro > ESTACION METEOROLÓGICA Mirador de Jinama

DATOS ACTUALES Online

Ultima actulizacion 28 minutos

11.1 ºC

Temperatura

98

Humedad (%)

884.8

Presión (mb)

0

Precipitación (mm)

23 S

Viento (Km/h)

DATOS DIARIOS

Temperatura últimas 24 horas (ºC)

Humedad últimas 24 horas (%)

Presión atmosférica últimas 24 horas (mb)

Precipitaciones últimas 23 horas (mm)

Viento últimas 24 horas (Km/h)

Hora Temperatura (°C) ºC Precipitación (mm) mm Presión (mb) mb Humedad (%) % Viento (Km/h) km/h
28 - 09:00 10.4 0 884 98 19.8 SW
28 - 10:00 11.1 0 884 97 21.6 S
28 - 11:00 11.7 0 885 96 15.1 SW
28 - 12:00 11.2 0 885 96 21.2 SW
28 - 13:00 12.5 0 885 92 15.5 W
28 - 14:00 12.2 0 885 93 17.6 S
28 - 15:00 12.3 0 884 92 20.2 SW
28 - 16:00 12.7 0 885 92 15.8 S
28 - 17:00 12.3 0 885 90 13.7 S
28 - 18:00 13.2 0 885 90 8.3 W
28 - 19:00 11.7 0 885 94 12.6 SO
28 - 20:00 11.1 0 885 97 19.4 SW
28 - 21:00 10.9 0 885 97 28.1 SW
28 - 22:00 11.2 0 885 97 28.8 SO
28 - 23:00 11.3 0 886 97 12.2 S
29 - 00:00 10.9 0 885 98 13.7 SW
29 - 01:00 11.6 0 885 98 17.6 SW
29 - 02:00 10.9 0 885 98 9.4 O
29 - 03:00 10.3 0 884 98 19.1 S
29 - 04:00 11.1 0 884 98 5 SW
29 - 05:00 10.6 0 884 98 9.7 SW
29 - 06:00 10.7 0 884 98 19.4 SW
29 - 07:00 10.7 0 884 98 14.8 SW
29 - 08:00 10.6 0 885 98 27 SW
29 - 09:00 11.1 0 885 98 23 S
Apalmet utiliza cookies propias y de terceros para mejorar la usabilidad y la experiencia web. Política de cookies.